sensor_id;sensor_type;location;lat;lon;timestamp;pressure;altitude;pressure_sealevel;temperature;humidity
78839;BME280;68405;47.190;27.558;2023-08-06T00:00:55;98751.31;;;23.14;55.19
78839;BME280;68405;47.190;27.558;2023-08-06T00:03:44;98749.04;;;23.10;54.31
78839;BME280;68405;47.190;27.558;2023-08-06T00:06:13;98741.48;;;23.08;55.68
78839;BME280;68405;47.190;27.558;2023-08-06T00:08:42;98739.73;;;23.08;54.97
78839;BME280;68405;47.190;27.558;2023-08-06T00:11:11;98742.00;;;23.05;55.09
78839;BME280;68405;47.190;27.558;2023-08-06T00:13:40;98741.20;;;23.04;54.27
78839;BME280;68405;47.190;27.558;2023-08-06T00:16:11;98737.14;;;23.05;55.69
78839;BME280;68405;47.190;27.558;2023-08-06T00:18:40;98741.27;;;23.05;54.51
78839;BME280;68405;47.190;27.558;2023-08-06T00:21:09;98740.65;;;23.02;55.51
78839;BME280;68405;47.190;27.558;2023-08-06T00:23:41;98746.54;;;23.00;55.53
78839;BME280;68405;47.190;27.558;2023-08-06T00:26:10;98742.50;;;22.97;54.90
78839;BME280;68405;47.190;27.558;2023-08-06T00:28:39;98739.91;;;22.94;55.27
78839;BME280;68405;47.190;27.558;2023-08-06T00:31:08;98738.86;;;22.91;55.64
78839;BME280;68405;47.190;27.558;2023-08-06T00:33:38;98734.04;;;22.87;55.24
78839;BME280;68405;47.190;27.558;2023-08-06T00:36:07;98732.73;;;22.85;55.12
78839;BME280;68405;47.190;27.558;2023-08-06T00:38:36;98731.82;;;22.82;55.01
78839;BME280;68405;47.190;27.558;2023-08-06T00:41:05;98730.48;;;22.78;54.55
78839;BME280;68405;47.190;27.558;2023-08-06T00:43:34;98727.36;;;22.72;54.39
78839;BME280;68405;47.190;27.558;2023-08-06T00:46:03;98727.48;;;22.67;55.71
78839;BME280;68405;47.190;27.558;2023-08-06T00:48:33;98723.97;;;22.62;55.66
78839;BME280;68405;47.190;27.558;2023-08-06T00:51:02;98724.88;;;22.56;56.24
78839;BME280;68405;47.190;27.558;2023-08-06T00:53:32;98723.42;;;22.50;56.37
78839;BME280;68405;47.190;27.558;2023-08-06T00:56:02;98719.98;;;22.44;56.90
78839;BME280;68405;47.190;27.558;2023-08-06T00:58:31;98721.33;;;22.37;55.17
78839;BME280;68405;47.190;27.558;2023-08-06T01:01:01;98720.66;;;22.33;55.57
78839;BME280;68405;47.190;27.558;2023-08-06T01:03:30;98715.73;;;22.31;55.62
78839;BME280;68405;47.190;27.558;2023-08-06T01:05:59;98715.90;;;22.30;55.37
78839;BME280;68405;47.190;27.558;2023-08-06T01:08:35;98714.46;;;22.28;55.33
78839;BME280;68405;47.190;27.558;2023-08-06T01:11:18;98717.73;;;22.24;54.70
78839;BME280;68405;47.190;27.558;2023-08-06T01:13:53;98715.50;;;22.21;56.54
78839;BME280;68405;47.190;27.558;2023-08-06T01:16:25;98715.60;;;22.20;55.35
78839;BME280;68405;47.190;27.558;2023-08-06T01:18:54;98713.27;;;22.17;55.39
78839;BME280;68405;47.190;27.558;2023-08-06T01:21:23;98713.17;;;22.18;56.48
78839;BME280;68405;47.190;27.558;2023-08-06T01:23:53;98709.23;;;22.20;56.38
78839;BME280;68405;47.190;27.558;2023-08-06T01:26:29;98706.23;;;22.20;56.77
78839;BME280;68405;47.190;27.558;2023-08-06T01:29:06;98707.36;;;22.23;57.91
78839;BME280;68405;47.190;27.558;2023-08-06T01:31:38;98704.73;;;22.21;56.59
78839;BME280;68405;47.190;27.558;2023-08-06T01:34:11;98695.55;;;22.21;58.55
78839;BME280;68405;47.190;27.558;2023-08-06T01:36:43;98691.11;;;22.23;59.97
78839;BME280;68405;47.190;27.558;2023-08-06T01:39:12;98690.31;;;22.22;60.03
78839;BME280;68405;47.190;27.558;2023-08-06T01:41:41;98688.05;;;22.18;59.40
78839;BME280;68405;47.190;27.558;2023-08-06T01:44:10;98688.84;;;22.14;60.61
78839;BME280;68405;47.190;27.558;2023-08-06T01:46:39;98685.16;;;22.10;61.02
78839;BME280;68405;47.190;27.558;2023-08-06T01:49:08;98680.61;;;22.07;62.20
78839;BME280;68405;47.190;27.558;2023-08-06T01:51:37;98675.20;;;22.03;61.07
78839;BME280;68405;47.190;27.558;2023-08-06T01:54:07;98671.79;;;21.97;62.09
78839;BME280;68405;47.190;27.558;2023-08-06T01:56:36;98666.19;;;21.91;63.10
78839;BME280;68405;47.190;27.558;2023-08-06T01:59:05;98666.46;;;21.87;62.40
78839;BME280;68405;47.190;27.558;2023-08-06T02:01:34;98663.37;;;21.81;63.37
78839;BME280;68405;47.190;27.558;2023-08-06T02:04:03;98664.53;;;21.76;63.15
78839;BME280;68405;47.190;27.558;2023-08-06T02:06:32;98668.62;;;21.72;64.70
78839;BME280;68405;47.190;27.558;2023-08-06T02:09:01;98662.03;;;21.69;64.44
78839;BME280;68405;47.190;27.558;2023-08-06T02:11:30;98659.48;;;21.65;65.20
78839;BME280;68405;47.190;27.558;2023-08-06T02:13:59;98656.70;;;21.63;64.94
78839;BME280;68405;47.190;27.558;2023-08-06T02:16:29;98658.48;;;21.61;64.96
78839;BME280;68405;47.190;27.558;2023-08-06T02:18:58;98657.93;;;21.57;65.22
78839;BME280;68405;47.190;27.558;2023-08-06T02:21:27;98659.31;;;21.56;65.13
78839;BME280;68405;47.190;27.558;2023-08-06T02:23:56;98659.83;;;21.54;64.89
78839;BME280;68405;47.190;27.558;2023-08-06T02:26:26;98657.39;;;21.50;64.58
78839;BME280;68405;47.190;27.558;2023-08-06T02:28:55;98655.80;;;21.48;66.27
78839;BME280;68405;47.190;27.558;2023-08-06T02:31:24;98653.06;;;21.47;66.83
78839;BME280;68405;47.190;27.558;2023-08-06T02:33:53;98653.85;;;21.48;67.72
78839;BME280;68405;47.190;27.558;2023-08-06T02:36:22;98655.46;;;21.50;67.70
78839;BME280;68405;47.190;27.558;2023-08-06T02:38:52;98654.50;;;21.49;68.02
78839;BME280;68405;47.190;27.558;2023-08-06T02:41:21;98647.81;;;21.50;67.90
78839;BME280;68405;47.190;27.558;2023-08-06T02:43:50;98645.02;;;21.53;68.38
78839;BME280;68405;47.190;27.558;2023-08-06T02:46:19;98636.67;;;21.54;68.44
78839;BME280;68405;47.190;27.558;2023-08-06T02:48:48;98630.55;;;21.53;68.36
78839;BME280;68405;47.190;27.558;2023-08-06T02:51:17;98624.81;;;21.52;68.62
78839;BME280;68405;47.190;27.558;2023-08-06T02:53:47;98622.48;;;21.49;68.17
78839;BME280;68405;47.190;27.558;2023-08-06T02:56:16;98621.77;;;21.46;68.56
78839;BME280;68405;47.190;27.558;2023-08-06T02:58:45;98626.70;;;21.42;69.57
78839;BME280;68405;47.190;27.558;2023-08-06T03:01:15;98624.34;;;21.39;69.71
78839;BME280;68405;47.190;27.558;2023-08-06T03:03:44;98622.09;;;21.35;68.26
78839;BME280;68405;47.190;27.558;2023-08-06T03:06:13;98621.27;;;21.33;67.59
78839;BME280;68405;47.190;27.558;2023-08-06T03:08:42;98616.63;;;21.32;68.81
78839;BME280;68405;47.190;27.558;2023-08-06T03:11:11;98616.27;;;21.32;69.40
78839;BME280;68405;47.190;27.558;2023-08-06T03:13:40;98612.60;;;21.33;69.45
78839;BME280;68405;47.190;27.558;2023-08-06T03:16:10;98610.52;;;21.33;68.72
78839;BME280;68405;47.190;27.558;2023-08-06T03:18:39;98613.90;;;21.38;69.75
78839;BME280;68405;47.190;27.558;2023-08-06T03:21:08;98612.97;;;21.42;70.06
78839;BME280;68405;47.190;27.558;2023-08-06T03:23:38;98610.84;;;21.45;69.53
78839;BME280;68405;47.190;27.558;2023-08-06T03:26:07;98608.80;;;21.50;69.85
78839;BME280;68405;47.190;27.558;2023-08-06T03:28:36;98602.72;;;21.52;68.85
78839;BME280;68405;47.190;27.558;2023-08-06T03:31:05;98598.17;;;21.54;69.59
78839;BME280;68405;47.190;27.558;2023-08-06T03:33:34;98601.38;;;21.57;69.00
78839;BME280;68405;47.190;27.558;2023-08-06T03:36:04;98603.58;;;21.60;68.53
78839;BME280;68405;47.190;27.558;2023-08-06T03:38:34;98602.67;;;21.62;66.99
78839;BME280;68405;47.190;27.558;2023-08-06T03:41:03;98603.23;;;21.65;69.13
78839;BME280;68405;47.190;27.558;2023-08-06T03:43:32;98599.47;;;21.69;69.02
78839;BME280;68405;47.190;27.558;2023-08-06T03:46:01;98601.16;;;21.75;69.37
78839;BME280;68405;47.190;27.558;2023-08-06T03:48:30;98603.20;;;21.82;68.45
78839;BME280;68405;47.190;27.558;2023-08-06T03:51:00;98601.97;;;21.83;70.22
78839;BME280;68405;47.190;27.558;2023-08-06T03:53:30;98597.54;;;21.92;68.77
78839;BME280;68405;47.190;27.558;2023-08-06T03:55:59;98595.58;;;22.04;67.04
78839;BME280;68405;47.190;27.558;2023-08-06T03:58:29;98598.01;;;22.29;67.14
78839;BME280;68405;47.190;27.558;2023-08-06T04:01:01;98597.14;;;22.40;67.74
78839;BME280;68405;47.190;27.558;2023-08-06T04:03:31;98595.05;;;22.49;66.82
78839;BME280;68405;47.190;27.558;2023-08-06T04:06:02;98591.21;;;22.62;66.27
78839;BME280;68405;47.190;27.558;2023-08-06T04:08:32;98584.23;;;23.09;65.21
78839;BME280;68405;47.190;27.558;2023-08-06T04:11:01;98589.30;;;23.33;64.78
78839;BME280;68405;47.190;27.558;2023-08-06T04:13:30;98584.95;;;23.36;64.79
78839;BME280;68405;47.190;27.558;2023-08-06T04:16:02;98580.74;;;23.52;64.20
78839;BME280;68405;47.190;27.558;2023-08-06T04:18:32;98580.97;;;23.76;63.87
78839;BME280;68405;47.190;27.558;2023-08-06T04:21:02;98584.30;;;24.21;62.81
78839;BME280;68405;47.190;27.558;2023-08-06T04:23:31;98583.30;;;24.82;61.08
78839;BME280;68405;47.190;27.558;2023-08-06T04:26:01;98581.75;;;26.30;58.11
78839;BME280;68405;47.190;27.558;2023-08-06T04:28:30;98581.49;;;27.57;52.20
78839;BME280;68405;47.190;27.558;2023-08-06T04:30:59;98576.02;;;28.91;52.88
78839;BME280;68405;47.190;27.558;2023-08-06T04:33:29;98567.04;;;29.81;48.82
78839;BME280;68405;47.190;27.558;2023-08-06T04:35:59;98564.98;;;30.76;46.16
78839;BME280;68405;47.190;27.558;2023-08-06T04:38:28;98562.45;;;31.57;42.65
78839;BME280;68405;47.190;27.558;2023-08-06T04:40:58;98567.33;;;32.69;40.62
78839;BME280;68405;47.190;27.558;2023-08-06T04:43:27;98565.31;;;33.56;39.62
78839;BME280;68405;47.190;27.558;2023-08-06T04:45:56;98570.80;;;34.44;37.82
78839;BME280;68405;47.190;27.558;2023-08-06T04:48:25;98570.42;;;35.27;36.91
78839;BME280;68405;47.190;27.558;2023-08-06T04:50:55;98572.05;;;36.13;35.75
78839;BME280;68405;47.190;27.558;2023-08-06T04:53:23;98566.48;;;36.51;34.00
78839;BME280;68405;47.190;27.558;2023-08-06T04:55:53;98572.37;;;37.78;32.94
78839;BME280;68405;47.190;27.558;2023-08-06T04:58:22;98566.77;;;38.47;32.37
78839;BME280;68405;47.190;27.558;2023-08-06T05:00:52;98567.91;;;38.55;28.97
78839;BME280;68405;47.190;27.558;2023-08-06T05:03:22;98569.86;;;38.88;28.42
78839;BME280;68405;47.190;27.558;2023-08-06T05:05:51;98567.32;;;39.67;27.68
78839;BME280;68405;47.190;27.558;2023-08-06T05:08:20;98574.03;;;40.47;27.74
78839;BME280;68405;47.190;27.558;2023-08-06T05:10:50;98573.38;;;40.70;26.13
78839;BME280;68405;47.190;27.558;2023-08-06T05:13:19;98571.95;;;41.29;25.36
78839;BME280;68405;47.190;27.558;2023-08-06T05:15:48;98571.48;;;42.06;23.84
78839;BME280;68405;47.190;27.558;2023-08-06T05:18:17;98571.73;;;42.52;23.61
78839;BME280;68405;47.190;27.558;2023-08-06T05:20:46;98568.62;;;42.78;22.78
78839;BME280;68405;47.190;27.558;2023-08-06T05:23:16;98570.06;;;42.88;22.09
78839;BME280;68405;47.190;27.558;2023-08-06T05:25:45;98562.92;;;43.32;21.53
78839;BME280;68405;47.190;27.558;2023-08-06T05:28:14;98557.77;;;44.06;21.48
78839;BME280;68405;47.190;27.558;2023-08-06T05:30:43;98558.55;;;44.73;19.93
78839;BME280;68405;47.190;27.558;2023-08-06T05:33:12;98565.95;;;45.64;18.67
78839;BME280;68405;47.190;27.558;2023-08-06T05:35:42;98563.80;;;46.68;19.17
78839;BME280;68405;47.190;27.558;2023-08-06T05:38:11;98562.67;;;46.85;17.92
78839;BME280;68405;47.190;27.558;2023-08-06T05:40:40;98564.63;;;47.81;17.61
78839;BME280;68405;47.190;27.558;2023-08-06T05:43:10;98565.48;;;47.96;16.57
78839;BME280;68405;47.190;27.558;2023-08-06T05:45:39;98558.36;;;47.89;16.65
78839;BME280;68405;47.190;27.558;2023-08-06T05:48:13;98555.82;;;48.05;15.81
78839;BME280;68405;47.190;27.558;2023-08-06T05:50:42;98557.94;;;48.67;15.41
78839;BME280;68405;47.190;27.558;2023-08-06T05:53:11;98557.98;;;49.06;15.18
78839;BME280;68405;47.190;27.558;2023-08-06T05:55:41;98554.08;;;48.66;15.12
78839;BME280;68405;47.190;27.558;2023-08-06T05:58:10;98550.64;;;49.05;14.58
78839;BME280;68405;47.190;27.558;2023-08-06T06:00:39;98554.23;;;48.86;14.48
78839;BME280;68405;47.190;27.558;2023-08-06T06:03:08;98550.85;;;49.29;14.04
78839;BME280;68405;47.190;27.558;2023-08-06T06:05:39;98552.46;;;49.40;13.61
78839;BME280;68405;47.190;27.558;2023-08-06T06:08:08;98553.73;;;48.79;13.97
78839;BME280;68405;47.190;27.558;2023-08-06T06:10:37;98549.59;;;49.18;13.31
78839;BME280;68405;47.190;27.558;2023-08-06T06:13:06;98543.23;;;49.60;13.01
78839;BME280;68405;47.190;27.558;2023-08-06T06:15:35;98545.12;;;50.35;12.69
78839;BME280;68405;47.190;27.558;2023-08-06T06:18:05;98544.52;;;50.64;12.98
78839;BME280;68405;47.190;27.558;2023-08-06T06:20:35;98546.18;;;50.72;12.14
78839;BME280;68405;47.190;27.558;2023-08-06T06:23:04;98541.90;;;50.81;12.05
78839;BME280;68405;47.190;27.558;2023-08-06T06:25:34;98540.87;;;50.85;12.13
78839;BME280;68405;47.190;27.558;2023-08-06T06:28:03;98539.86;;;51.51;11.66
78839;BME280;68405;47.190;27.558;2023-08-06T06:30:32;98538.92;;;51.22;11.62
78839;BME280;68405;47.190;27.558;2023-08-06T06:33:01;98538.75;;;51.12;11.37
78839;BME280;68405;47.190;27.558;2023-08-06T06:35:31;98536.73;;;51.80;11.36
78839;BME280;68405;47.190;27.558;2023-08-06T06:38:00;98532.80;;;52.34;10.70
78839;BME280;68405;47.190;27.558;2023-08-06T06:40:29;98533.63;;;52.88;10.29
78839;BME280;68405;47.190;27.558;2023-08-06T06:42:58;98526.95;;;52.83;10.02
78839;BME280;68405;47.190;27.558;2023-08-06T06:45:27;98529.17;;;53.04;10.18
78839;BME280;68405;47.190;27.558;2023-08-06T06:47:56;98529.56;;;52.81;10.26
78839;BME280;68405;47.190;27.558;2023-08-06T06:50:26;98525.91;;;53.00;10.23
78839;BME280;68405;47.190;27.558;2023-08-06T06:52:55;98532.70;;;52.48;10.37
78839;BME280;68405;47.190;27.558;2023-08-06T06:55:24;98536.66;;;51.84;10.59
78839;BME280;68405;47.190;27.558;2023-08-06T06:57:53;98534.60;;;52.26;10.57
78839;BME280;68405;47.190;27.558;2023-08-06T07:00:23;98532.80;;;52.56;9.88
78839;BME280;68405;47.190;27.558;2023-08-06T07:02:52;98521.98;;;52.28;9.95
78839;BME280;68405;47.190;27.558;2023-08-06T07:05:21;98523.35;;;51.97;10.15
78839;BME280;68405;47.190;27.558;2023-08-06T07:07:51;98517.41;;;52.20;10.10
78839;BME280;68405;47.190;27.558;2023-08-06T07:10:21;98524.22;;;53.04;9.76
78839;BME280;68405;47.190;27.558;2023-08-06T07:12:50;98526.23;;;53.27;9.93
78839;BME280;68405;47.190;27.558;2023-08-06T07:15:19;98524.98;;;52.64;9.64
78839;BME280;68405;47.190;27.558;2023-08-06T07:17:48;98522.48;;;52.27;9.95
78839;BME280;68405;47.190;27.558;2023-08-06T07:20:18;98523.97;;;53.32;9.56
78839;BME280;68405;47.190;27.558;2023-08-06T07:22:47;98513.13;;;53.52;9.22
78839;BME280;68405;47.190;27.558;2023-08-06T07:25:16;98510.17;;;53.83;9.36
78839;BME280;68405;47.190;27.558;2023-08-06T07:27:45;98514.10;;;53.69;9.31
78839;BME280;68405;47.190;27.558;2023-08-06T07:30:14;98506.89;;;53.12;9.45
78839;BME280;68405;47.190;27.558;2023-08-06T07:32:43;98500.66;;;52.62;9.97
78839;BME280;68405;47.190;27.558;2023-08-06T07:35:12;98505.70;;;53.49;9.36
78839;BME280;68405;47.190;27.558;2023-08-06T07:37:42;98499.65;;;53.07;9.53
78839;BME280;68405;47.190;27.558;2023-08-06T07:40:13;98493.25;;;53.93;9.31
78839;BME280;68405;47.190;27.558;2023-08-06T07:42:42;98494.23;;;54.01;9.10
78839;BME280;68405;47.190;27.558;2023-08-06T07:45:12;98485.45;;;54.17;8.79
78839;BME280;68405;47.190;27.558;2023-08-06T07:47:41;98483.98;;;54.40;8.99
78839;BME280;68405;47.190;27.558;2023-08-06T07:50:11;98479.60;;;55.27;8.60
78839;BME280;68405;47.190;27.558;2023-08-06T07:52:40;98474.65;;;55.63;8.27
78839;BME280;68405;47.190;27.558;2023-08-06T07:55:10;98473.98;;;55.24;8.11
78839;BME280;68405;47.190;27.558;2023-08-06T07:57:39;98468.22;;;55.13;8.06
78839;BME280;68405;47.190;27.558;2023-08-06T08:00:09;98466.39;;;53.72;8.61
78839;BME280;68405;47.190;27.558;2023-08-06T08:02:39;98463.96;;;54.05;8.32
78839;BME280;68405;47.190;27.558;2023-08-06T08:05:09;98462.77;;;54.27;7.95
78839;BME280;68405;47.190;27.558;2023-08-06T08:07:38;98454.76;;;54.22;8.05
78839;BME280;68405;47.190;27.558;2023-08-06T08:10:09;98453.90;;;55.27;7.61
78839;BME280;68405;47.190;27.558;2023-08-06T08:12:38;98446.06;;;54.69;7.99
78839;BME280;68405;47.190;27.558;2023-08-06T08:15:08;98444.01;;;53.26;9.21
78839;BME280;68405;47.190;27.558;2023-08-06T08:17:37;98450.23;;;54.26;8.39
78839;BME280;68405;47.190;27.558;2023-08-06T08:20:08;98449.86;;;55.08;7.95
78839;BME280;68405;47.190;27.558;2023-08-06T08:22:37;98447.11;;;54.80;8.31
78839;BME280;68405;47.190;27.558;2023-08-06T08:25:08;98448.71;;;54.64;7.87
78839;BME280;68405;47.190;27.558;2023-08-06T08:27:37;98439.58;;;54.86;7.99
78839;BME280;68405;47.190;27.558;2023-08-06T08:30:08;98442.13;;;55.59;7.82
78839;BME280;68405;47.190;27.558;2023-08-06T08:32:37;98440.20;;;55.58;7.66
78839;BME280;68405;47.190;27.558;2023-08-06T08:35:07;98447.79;;;54.69;8.24
78839;BME280;68405;47.190;27.558;2023-08-06T08:37:36;98441.38;;;53.25;8.96
78839;BME280;68405;47.190;27.558;2023-08-06T08:40:08;98444.32;;;53.03;9.14
78839;BME280;68405;47.190;27.558;2023-08-06T08:42:38;98434.63;;;52.02;9.71
78839;BME280;68405;47.190;27.558;2023-08-06T08:45:12;98426.30;;;50.20;11.03
78839;BME280;68405;47.190;27.558;2023-08-06T08:47:43;98423.59;;;51.06;10.24
78839;BME280;68405;47.190;27.558;2023-08-06T08:50:12;98415.50;;;51.60;9.84
78839;BME280;68405;47.190;27.558;2023-08-06T08:52:43;98412.91;;;52.97;8.86
78839;BME280;68405;47.190;27.558;2023-08-06T08:55:15;98416.60;;;53.75;8.52
78839;BME280;68405;47.190;27.558;2023-08-06T08:57:44;98407.96;;;53.85;8.57
78839;BME280;68405;47.190;27.558;2023-08-06T09:00:14;98407.54;;;53.35;8.76
78839;BME280;68405;47.190;27.558;2023-08-06T09:02:43;98403.25;;;53.37;8.78
78839;BME280;68405;47.190;27.558;2023-08-06T09:05:14;98400.56;;;53.46;9.11
78839;BME280;68405;47.190;27.558;2023-08-06T09:07:48;98397.45;;;53.16;9.41
78839;BME280;68405;47.190;27.558;2023-08-06T09:10:17;98396.34;;;53.37;9.64
78839;BME280;68405;47.190;27.558;2023-08-06T09:12:49;98383.52;;;53.09;9.98
78839;BME280;68405;47.190;27.558;2023-08-06T09:15:20;98374.30;;;52.47;9.99
78839;BME280;68405;47.190;27.558;2023-08-06T09:17:49;98369.93;;;52.81;9.85
78839;BME280;68405;47.190;27.558;2023-08-06T09:20:19;98359.77;;;52.51;9.92
78839;BME280;68405;47.190;27.558;2023-08-06T09:22:49;98357.59;;;52.84;9.67
78839;BME280;68405;47.190;27.558;2023-08-06T09:25:23;98354.89;;;52.43;9.68
78839;BME280;68405;47.190;27.558;2023-08-06T09:27:52;98346.47;;;52.49;9.63
78839;BME280;68405;47.190;27.558;2023-08-06T09:30:31;98340.78;;;51.86;10.10
78839;BME280;68405;47.190;27.558;2023-08-06T09:33:01;98343.38;;;51.51;10.44
78839;BME280;68405;47.190;27.558;2023-08-06T09:35:31;98343.17;;;50.86;11.02
78839;BME280;68405;47.190;27.558;2023-08-06T09:38:08;98330.35;;;51.30;10.85
78839;BME280;68405;47.190;27.558;2023-08-06T09:40:39;98331.25;;;52.09;10.66
78839;BME280;68405;47.190;27.558;2023-08-06T09:43:08;98333.84;;;51.83;10.79
78839;BME280;68405;47.190;27.558;2023-08-06T09:45:40;98337.39;;;51.55;10.86
78839;BME280;68405;47.190;27.558;2023-08-06T09:48:11;98333.74;;;51.13;11.00
78839;BME280;68405;47.190;27.558;2023-08-06T09:50:40;98327.58;;;50.43;11.50
78839;BME280;68405;47.190;27.558;2023-08-06T09:53:10;98316.69;;;50.54;11.63
78839;BME280;68405;47.190;27.558;2023-08-06T09:55:39;98307.35;;;50.30;11.62
78839;BME280;68405;47.190;27.558;2023-08-06T09:58:09;98306.25;;;50.47;11.46
78839;BME280;68405;47.190;27.558;2023-08-06T10:00:38;98300.77;;;50.30;11.68
78839;BME280;68405;47.190;27.558;2023-08-06T10:03:09;98303.91;;;48.74;13.02
78839;BME280;68405;47.190;27.558;2023-08-06T10:05:39;98300.70;;;49.04;12.58
78839;BME280;68405;47.190;27.558;2023-08-06T10:08:09;98303.85;;;48.35;13.17
78839;BME280;68405;47.190;27.558;2023-08-06T10:10:38;98299.02;;;48.51;13.08
78839;BME280;68405;47.190;27.558;2023-08-06T10:13:08;98298.85;;;48.66;13.04
78839;BME280;68405;47.190;27.558;2023-08-06T10:15:38;98292.59;;;49.44;12.63
78839;BME280;68405;47.190;27.558;2023-08-06T10:18:08;98295.94;;;49.58;12.96
78839;BME280;68405;47.190;27.558;2023-08-06T10:20:38;98288.40;;;49.59;12.62
78839;BME280;68405;47.190;27.558;2023-08-06T10:23:08;98285.04;;;49.55;12.06
78839;BME280;68405;47.190;27.558;2023-08-06T10:25:42;98287.16;;;49.04;12.44
78839;BME280;68405;47.190;27.558;2023-08-06T10:28:11;98283.36;;;48.35;13.30
78839;BME280;68405;47.190;27.558;2023-08-06T10:30:45;98279.30;;;48.07;13.45
78839;BME280;68405;47.190;27.558;2023-08-06T10:33:15;98272.64;;;47.96;13.55
78839;BME280;68405;47.190;27.558;2023-08-06T10:35:45;98265.05;;;47.82;13.84
78839;BME280;68405;47.190;27.558;2023-08-06T10:38:18;98256.73;;;47.97;14.06
78839;BME280;68405;47.190;27.558;2023-08-06T10:41:00;98250.13;;;47.86;14.22
78839;BME280;68405;47.190;27.558;2023-08-06T10:43:31;98247.10;;;47.97;14.10
78839;BME280;68405;47.190;27.558;2023-08-06T10:46:02;98250.08;;;47.94;14.27
78839;BME280;68405;47.190;27.558;2023-08-06T10:48:35;98246.71;;;47.35;14.51
78839;BME280;68405;47.190;27.558;2023-08-06T10:51:08;98236.73;;;47.50;14.38
78839;BME280;68405;47.190;27.558;2023-08-06T10:53:41;98242.59;;;47.30;14.73
78839;BME280;68405;47.190;27.558;2023-08-06T10:56:14;98231.27;;;46.54;15.44
78839;BME280;68405;47.190;27.558;2023-08-06T10:58:45;98227.02;;;46.56;15.39
78839;BME280;68405;47.190;27.558;2023-08-06T11:01:14;98217.36;;;46.56;15.51
78839;BME280;68405;47.190;27.558;2023-08-06T11:03:45;98213.19;;;46.27;15.58
78839;BME280;68405;47.190;27.558;2023-08-06T11:06:19;98203.13;;;46.27;15.35
78839;BME280;68405;47.190;27.558;2023-08-06T11:08:53;98197.42;;;45.71;16.13
78839;BME280;68405;47.190;27.558;2023-08-06T11:11:23;98202.08;;;45.32;16.47
78839;BME280;68405;47.190;27.558;2023-08-06T11:13:52;98198.02;;;44.98;16.56
78839;BME280;68405;47.190;27.558;2023-08-06T11:16:23;98188.61;;;44.79;16.46
78839;BME280;68405;47.190;27.558;2023-08-06T11:18:53;98192.55;;;44.32;16.82
78839;BME280;68405;47.190;27.558;2023-08-06T11:21:24;98187.98;;;44.07;17.40
78839;BME280;68405;47.190;27.558;2023-08-06T11:23:54;98185.98;;;43.83;17.42
78839;BME280;68405;47.190;27.558;2023-08-06T11:26:23;98180.86;;;43.74;17.21
78839;BME280;68405;47.190;27.558;2023-08-06T11:28:52;98174.49;;;43.04;17.88
78839;BME280;68405;47.190;27.558;2023-08-06T11:31:22;98162.36;;;42.81;18.50
78839;BME280;68405;47.190;27.558;2023-08-06T11:33:52;98159.33;;;42.50;18.79
78839;BME280;68405;47.190;27.558;2023-08-06T11:36:31;98150.89;;;41.92;19.09
78839;BME280;68405;47.190;27.558;2023-08-06T11:39:01;98143.40;;;41.93;19.23
78839;BME280;68405;47.190;27.558;2023-08-06T11:41:32;98137.86;;;42.12;18.90
78839;BME280;68405;47.190;27.558;2023-08-06T11:44:02;98137.58;;;41.96;19.31
78839;BME280;68405;47.190;27.558;2023-08-06T11:46:51;98136.37;;;42.08;18.89
78839;BME280;68405;47.190;27.558;2023-08-06T11:49:21;98137.92;;;41.62;19.47
78839;BME280;68405;47.190;27.558;2023-08-06T11:51:52;98129.81;;;41.30;19.99
78839;BME280;68405;47.190;27.558;2023-08-06T11:54:32;98121.92;;;41.17;20.29
78839;BME280;68405;47.190;27.558;2023-08-06T11:57:02;98120.86;;;40.79;20.39
78839;BME280;68405;47.190;27.558;2023-08-06T11:59:31;98117.88;;;40.77;20.08
78839;BME280;68405;47.190;27.558;2023-08-06T12:02:03;98112.19;;;40.56;20.63
78839;BME280;68405;47.190;27.558;2023-08-06T12:04:59;98108.17;;;40.52;20.81
78839;BME280;68405;47.190;27.558;2023-08-06T12:07:29;98098.34;;;40.57;20.46
78839;BME280;68405;47.190;27.558;2023-08-06T12:09:59;98103.93;;;40.28;20.70
78839;BME280;68405;47.190;27.558;2023-08-06T12:12:28;98091.86;;;40.18;20.54
78839;BME280;68405;47.190;27.558;2023-08-06T12:14:58;98093.81;;;40.17;20.24
78839;BME280;68405;47.190;27.558;2023-08-06T12:17:27;98086.10;;;39.95;20.16
78839;BME280;68405;47.190;27.558;2023-08-06T12:19:56;98081.72;;;39.91;20.14
78839;BME280;68405;47.190;27.558;2023-08-06T12:22:26;98068.86;;;39.65;20.16
78839;BME280;68405;47.190;27.558;2023-08-06T12:24:56;98069.75;;;39.70;20.52
78839;BME280;68405;47.190;27.558;2023-08-06T12:27:25;98070.02;;;39.15;20.89
78839;BME280;68405;47.190;27.558;2023-08-06T12:29:53;98065.88;;;39.00;20.79
78839;BME280;68405;47.190;27.558;2023-08-06T12:32:22;98059.65;;;39.09;21.26
78839;BME280;68405;47.190;27.558;2023-08-06T12:34:52;98060.05;;;39.01;21.69
78839;BME280;68405;47.190;27.558;2023-08-06T12:37:21;98057.23;;;39.13;21.47
78839;BME280;68405;47.190;27.558;2023-08-06T12:39:51;98051.09;;;39.17;21.89
78839;BME280;68405;47.190;27.558;2023-08-06T12:42:21;98055.00;;;39.21;21.05
78839;BME280;68405;47.190;27.558;2023-08-06T12:44:50;98042.70;;;38.99;21.22
78839;BME280;68405;47.190;27.558;2023-08-06T12:47:19;98034.66;;;38.89;21.15
78839;BME280;68405;47.190;27.558;2023-08-06T12:49:49;98032.74;;;38.83;21.40
78839;BME280;68405;47.190;27.558;2023-08-06T12:52:18;98025.97;;;38.60;20.97
78839;BME280;68405;47.190;27.558;2023-08-06T12:54:47;98018.71;;;38.73;21.19
78839;BME280;68405;47.190;27.558;2023-08-06T12:57:16;98013.45;;;38.93;21.27
78839;BME280;68405;47.190;27.558;2023-08-06T12:59:45;98010.77;;;38.79;21.24
78839;BME280;68405;47.190;27.558;2023-08-06T13:02:14;98017.51;;;38.67;21.27
78839;BME280;68405;47.190;27.558;2023-08-06T13:04:43;98011.40;;;38.53;21.48
78839;BME280;68405;47.190;27.558;2023-08-06T13:07:12;98013.73;;;38.44;21.25